sensor_id;sensor_type;location;lat;lon;timestamp;P1;durP1;ratioP1;P2;durP2;ratioP2
80175;SDS011;69501;42.124;24.722;2023-07-22T00:00:06;6.68;;;5.97;;
80175;SDS011;69501;42.124;24.722;2023-07-22T00:02:37;9.82;;;6.05;;
80175;SDS011;69501;42.124;24.722;2023-07-22T00:05:03;8.95;;;6.00;;
80175;SDS011;69501;42.124;24.722;2023-07-22T00:07:29;6.75;;;5.32;;
80175;SDS011;69501;42.124;24.722;2023-07-22T00:09:55;10.50;;;6.10;;
80175;SDS011;69501;42.124;24.722;2023-07-22T00:12:20;8.40;;;5.57;;
80175;SDS011;69501;42.124;24.722;2023-07-22T00:14:50;9.48;;;6.03;;
80175;SDS011;69501;42.124;24.722;2023-07-22T00:17:16;9.50;;;5.85;;
80175;SDS011;69501;42.124;24.722;2023-07-22T00:19:42;13.93;;;6.05;;
80175;SDS011;69501;42.124;24.722;2023-07-22T00:22:07;12.90;;;6.22;;
80175;SDS011;69501;42.124;24.722;2023-07-22T00:24:33;8.65;;;6.68;;
80175;SDS011;69501;42.124;24.722;2023-07-22T00:26:59;10.43;;;6.05;;
80175;SDS011;69501;42.124;24.722;2023-07-22T00:29:24;7.93;;;5.75;;
80175;SDS011;69501;42.124;24.722;2023-07-22T00:31:50;7.22;;;6.20;;
80175;SDS011;69501;42.124;24.722;2023-07-22T00:34:16;11.00;;;5.75;;
80175;SDS011;69501;42.124;24.722;2023-07-22T00:36:41;8.40;;;5.70;;
80175;SDS011;69501;42.124;24.722;2023-07-22T00:39:07;6.28;;;5.63;;
80175;SDS011;69501;42.124;24.722;2023-07-22T00:41:33;9.90;;;5.75;;
80175;SDS011;69501;42.124;24.722;2023-07-22T00:43:58;10.55;;;6.22;;
80175;SDS011;69501;42.124;24.722;2023-07-22T00:46:24;8.80;;;6.28;;
80175;SDS011;69501;42.124;24.722;2023-07-22T00:48:50;10.48;;;6.35;;
80175;SDS011;69501;42.124;24.722;2023-07-22T00:51:16;13.27;;;5.45;;
80175;SDS011;69501;42.124;24.722;2023-07-22T00:53:42;9.55;;;6.45;;
80175;SDS011;69501;42.124;24.722;2023-07-22T00:56:08;7.07;;;5.88;;
80175;SDS011;69501;42.124;24.722;2023-07-22T00:58:33;9.57;;;6.13;;
80175;SDS011;69501;42.124;24.722;2023-07-22T01:00:59;9.55;;;6.43;;
80175;SDS011;69501;42.124;24.722;2023-07-22T01:03:25;7.72;;;5.80;;
80175;SDS011;69501;42.124;24.722;2023-07-22T01:05:51;8.52;;;5.70;;
80175;SDS011;69501;42.124;24.722;2023-07-22T01:08:18;13.60;;;6.72;;
80175;SDS011;69501;42.124;24.722;2023-07-22T01:10:44;10.88;;;6.45;;
80175;SDS011;69501;42.124;24.722;2023-07-22T01:13:10;9.95;;;5.68;;
80175;SDS011;69501;42.124;24.722;2023-07-22T01:15:35;8.77;;;5.95;;
80175;SDS011;69501;42.124;24.722;2023-07-22T01:18:02;10.90;;;6.78;;
80175;SDS011;69501;42.124;24.722;2023-07-22T01:20:29;9.30;;;5.97;;
80175;SDS011;69501;42.124;24.722;2023-07-22T01:22:55;10.90;;;6.25;;
80175;SDS011;69501;42.124;24.722;2023-07-22T01:25:22;13.27;;;6.20;;
80175;SDS011;69501;42.124;24.722;2023-07-22T01:27:48;13.50;;;5.97;;
80175;SDS011;69501;42.124;24.722;2023-07-22T01:30:17;8.73;;;6.45;;
80175;SDS011;69501;42.124;24.722;2023-07-22T01:32:44;9.73;;;5.95;;
80175;SDS011;69501;42.124;24.722;2023-07-22T01:35:11;10.50;;;6.30;;
80175;SDS011;69501;42.124;24.722;2023-07-22T01:37:37;12.82;;;6.32;;
80175;SDS011;69501;42.124;24.722;2023-07-22T01:40:03;8.02;;;5.80;;
80175;SDS011;69501;42.124;24.722;2023-07-22T01:42:40;10.20;;;6.18;;
80175;SDS011;69501;42.124;24.722;2023-07-22T01:45:07;10.93;;;6.30;;
80175;SDS011;69501;42.124;24.722;2023-07-22T01:47:34;11.15;;;6.60;;
80175;SDS011;69501;42.124;24.722;2023-07-22T01:50:01;12.10;;;8.38;;
80175;SDS011;69501;42.124;24.722;2023-07-22T01:52:31;11.43;;;8.80;;
80175;SDS011;69501;42.124;24.722;2023-07-22T01:54:57;14.48;;;8.10;;
80175;SDS011;69501;42.124;24.722;2023-07-22T01:57:23;10.65;;;7.72;;
80175;SDS011;69501;42.124;24.722;2023-07-22T01:59:48;12.68;;;8.43;;
80175;SDS011;69501;42.124;24.722;2023-07-22T02:02:14;14.85;;;6.70;;
80175;SDS011;69501;42.124;24.722;2023-07-22T02:04:39;12.95;;;6.90;;
80175;SDS011;69501;42.124;24.722;2023-07-22T02:07:05;11.55;;;7.47;;
80175;SDS011;69501;42.124;24.722;2023-07-22T02:09:34;10.48;;;7.65;;
80175;SDS011;69501;42.124;24.722;2023-07-22T02:12:00;17.17;;;7.32;;
80175;SDS011;69501;42.124;24.722;2023-07-22T02:14:26;7.93;;;7.05;;
80175;SDS011;69501;42.124;24.722;2023-07-22T02:16:51;9.63;;;7.22;;
80175;SDS011;69501;42.124;24.722;2023-07-22T02:19:17;15.30;;;7.18;;
80175;SDS011;69501;42.124;24.722;2023-07-22T02:21:42;10.23;;;7.00;;
80175;SDS011;69501;42.124;24.722;2023-07-22T02:24:09;10.15;;;7.20;;
80175;SDS011;69501;42.124;24.722;2023-07-22T02:26:35;15.60;;;7.00;;
80175;SDS011;69501;42.124;24.722;2023-07-22T02:29:01;11.45;;;7.28;;
80175;SDS011;69501;42.124;24.722;2023-07-22T02:31:27;10.27;;;8.40;;
80175;SDS011;69501;42.124;24.722;2023-07-22T02:33:53;17.17;;;9.07;;
80175;SDS011;69501;42.124;24.722;2023-07-22T02:36:18;16.50;;;9.57;;
80175;SDS011;69501;42.124;24.722;2023-07-22T02:38:44;12.68;;;11.05;;
80175;SDS011;69501;42.124;24.722;2023-07-22T02:41:10;15.27;;;9.32;;
80175;SDS011;69501;42.124;24.722;2023-07-22T02:43:35;18.38;;;8.98;;
80175;SDS011;69501;42.124;24.722;2023-07-22T02:46:02;11.82;;;8.57;;
80175;SDS011;69501;42.124;24.722;2023-07-22T02:48:29;12.43;;;9.07;;
80175;SDS011;69501;42.124;24.722;2023-07-22T02:51:01;17.05;;;8.95;;
80175;SDS011;69501;42.124;24.722;2023-07-22T02:53:31;18.30;;;10.48;;
80175;SDS011;69501;42.124;24.722;2023-07-22T02:55:57;13.43;;;11.20;;
80175;SDS011;69501;42.124;24.722;2023-07-22T02:58:24;16.27;;;10.95;;
80175;SDS011;69501;42.124;24.722;2023-07-22T03:00:50;16.20;;;10.80;;
80175;SDS011;69501;42.124;24.722;2023-07-22T03:03:15;18.50;;;10.93;;
80175;SDS011;69501;42.124;24.722;2023-07-22T03:05:41;15.85;;;11.10;;
80175;SDS011;69501;42.124;24.722;2023-07-22T03:08:06;16.45;;;9.95;;
80175;SDS011;69501;42.124;24.722;2023-07-22T03:10:32;18.77;;;11.25;;
80175;SDS011;69501;42.124;24.722;2023-07-22T03:12:58;24.27;;;13.73;;
80175;SDS011;69501;42.124;24.722;2023-07-22T03:15:24;14.10;;;12.05;;
80175;SDS011;69501;42.124;24.722;2023-07-22T03:17:53;15.02;;;11.00;;
80175;SDS011;69501;42.124;24.722;2023-07-22T03:20:24;19.77;;;10.50;;
80175;SDS011;69501;42.124;24.722;2023-07-22T03:22:50;16.02;;;10.60;;
80175;SDS011;69501;42.124;24.722;2023-07-22T03:25:17;15.55;;;11.35;;
80175;SDS011;69501;42.124;24.722;2023-07-22T03:27:43;14.52;;;10.80;;
80175;SDS011;69501;42.124;24.722;2023-07-22T03:30:11;17.60;;;9.93;;
80175;SDS011;69501;42.124;24.722;2023-07-22T03:32:40;13.35;;;9.80;;
80175;SDS011;69501;42.124;24.722;2023-07-22T03:35:07;16.83;;;10.32;;
80175;SDS011;69501;42.124;24.722;2023-07-22T03:37:35;14.73;;;9.73;;
80175;SDS011;69501;42.124;24.722;2023-07-22T03:40:01;17.08;;;9.90;;
80175;SDS011;69501;42.124;24.722;2023-07-22T03:42:38;15.90;;;9.50;;
80175;SDS011;69501;42.124;24.722;2023-07-22T03:45:04;20.10;;;10.32;;
80175;SDS011;69501;42.124;24.722;2023-07-22T03:47:31;14.88;;;10.05;;
80175;SDS011;69501;42.124;24.722;2023-07-22T03:49:57;13.23;;;9.32;;
80175;SDS011;69501;42.124;24.722;2023-07-22T03:52:23;17.55;;;9.48;;
80175;SDS011;69501;42.124;24.722;2023-07-22T03:54:48;16.35;;;9.55;;
80175;SDS011;69501;42.124;24.722;2023-07-22T03:57:14;14.20;;;9.05;;
80175;SDS011;69501;42.124;24.722;2023-07-22T03:59:39;18.45;;;9.45;;
80175;SDS011;69501;42.124;24.722;2023-07-22T04:02:05;18.45;;;9.00;;
80175;SDS011;69501;42.124;24.722;2023-07-22T04:04:31;12.50;;;9.07;;
80175;SDS011;69501;42.124;24.722;2023-07-22T04:06:57;15.70;;;9.45;;
80175;SDS011;69501;42.124;24.722;2023-07-22T04:09:22;13.82;;;9.93;;
80175;SDS011;69501;42.124;24.722;2023-07-22T04:11:48;16.25;;;10.20;;
80175;SDS011;69501;42.124;24.722;2023-07-22T04:14:14;16.08;;;9.10;;
80175;SDS011;69501;42.124;24.722;2023-07-22T04:16:40;17.35;;;10.27;;
80175;SDS011;69501;42.124;24.722;2023-07-22T04:19:06;18.02;;;8.98;;
80175;SDS011;69501;42.124;24.722;2023-07-22T04:21:32;12.18;;;9.18;;
80175;SDS011;69501;42.124;24.722;2023-07-22T04:23:57;16.02;;;10.23;;
80175;SDS011;69501;42.124;24.722;2023-07-22T04:26:23;14.63;;;10.07;;
80175;SDS011;69501;42.124;24.722;2023-07-22T04:28:48;16.67;;;9.65;;
80175;SDS011;69501;42.124;24.722;2023-07-22T04:31:14;18.88;;;9.60;;
80175;SDS011;69501;42.124;24.722;2023-07-22T04:33:40;19.83;;;9.40;;
80175;SDS011;69501;42.124;24.722;2023-07-22T04:36:06;14.45;;;9.57;;
80175;SDS011;69501;42.124;24.722;2023-07-22T04:38:35;13.23;;;9.00;;
80175;SDS011;69501;42.124;24.722;2023-07-22T04:41:02;44.95;;;25.02;;
80175;SDS011;69501;42.124;24.722;2023-07-22T04:43:29;36.58;;;19.10;;
80175;SDS011;69501;42.124;24.722;2023-07-22T04:45:55;26.30;;;15.30;;
80175;SDS011;69501;42.124;24.722;2023-07-22T04:48:21;20.25;;;13.88;;
80175;SDS011;69501;42.124;24.722;2023-07-22T04:50:48;17.70;;;11.43;;
80175;SDS011;69501;42.124;24.722;2023-07-22T04:53:17;16.58;;;9.98;;
80175;SDS011;69501;42.124;24.722;2023-07-22T04:55:43;20.77;;;10.30;;
80175;SDS011;69501;42.124;24.722;2023-07-22T04:58:09;16.52;;;9.70;;
80175;SDS011;69501;42.124;24.722;2023-07-22T05:00:36;15.30;;;9.88;;
80175;SDS011;69501;42.124;24.722;2023-07-22T05:03:02;13.38;;;9.70;;
80175;SDS011;69501;42.124;24.722;2023-07-22T05:05:29;12.90;;;9.48;;
80175;SDS011;69501;42.124;24.722;2023-07-22T05:07:55;12.48;;;9.85;;
80175;SDS011;69501;42.124;24.722;2023-07-22T05:10:20;15.55;;;10.10;;
80175;SDS011;69501;42.124;24.722;2023-07-22T05:12:46;14.95;;;9.60;;
80175;SDS011;69501;42.124;24.722;2023-07-22T05:15:12;15.43;;;9.00;;
80175;SDS011;69501;42.124;24.722;2023-07-22T05:17:38;11.02;;;9.15;;
80175;SDS011;69501;42.124;24.722;2023-07-22T05:20:04;16.52;;;9.48;;
80175;SDS011;69501;42.124;24.722;2023-07-22T05:22:31;16.63;;;9.45;;
80175;SDS011;69501;42.124;24.722;2023-07-22T05:24:58;12.15;;;9.05;;
80175;SDS011;69501;42.124;24.722;2023-07-22T05:27:24;13.38;;;9.48;;
80175;SDS011;69501;42.124;24.722;2023-07-22T05:29:50;14.98;;;9.13;;
80175;SDS011;69501;42.124;24.722;2023-07-22T05:32:15;16.77;;;9.40;;
80175;SDS011;69501;42.124;24.722;2023-07-22T05:34:41;24.10;;;10.05;;
80175;SDS011;69501;42.124;24.722;2023-07-22T05:37:06;14.05;;;10.10;;
80175;SDS011;69501;42.124;24.722;2023-07-22T05:39:32;18.10;;;9.80;;
80175;SDS011;69501;42.124;24.722;2023-07-22T05:41:58;20.80;;;11.95;;
80175;SDS011;69501;42.124;24.722;2023-07-22T05:44:23;18.77;;;11.38;;
80175;SDS011;69501;42.124;24.722;2023-07-22T05:46:49;15.77;;;11.68;;
80175;SDS011;69501;42.124;24.722;2023-07-22T05:49:14;18.48;;;12.75;;
80175;SDS011;69501;42.124;24.722;2023-07-22T05:51:40;19.63;;;12.35;;
80175;SDS011;69501;42.124;24.722;2023-07-22T05:54:06;15.55;;;10.90;;
80175;SDS011;69501;42.124;24.722;2023-07-22T05:56:31;13.20;;;10.38;;
80175;SDS011;69501;42.124;24.722;2023-07-22T05:58:57;13.38;;;10.13;;
80175;SDS011;69501;42.124;24.722;2023-07-22T06:01:23;14.57;;;10.23;;
80175;SDS011;69501;42.124;24.722;2023-07-22T06:03:52;22.05;;;11.18;;
80175;SDS011;69501;42.124;24.722;2023-07-22T06:06:18;14.00;;;10.50;;
80175;SDS011;69501;42.124;24.722;2023-07-22T06:08:44;18.20;;;11.55;;
80175;SDS011;69501;42.124;24.722;2023-07-22T06:11:09;17.85;;;11.52;;
80175;SDS011;69501;42.124;24.722;2023-07-22T06:13:35;20.55;;;11.90;;
80175;SDS011;69501;42.124;24.722;2023-07-22T06:16:00;21.30;;;11.82;;
80175;SDS011;69501;42.124;24.722;2023-07-22T06:18:26;20.60;;;13.55;;
80175;SDS011;69501;42.124;24.722;2023-07-22T06:20:52;20.45;;;12.75;;
80175;SDS011;69501;42.124;24.722;2023-07-22T06:23:17;20.50;;;11.50;;
80175;SDS011;69501;42.124;24.722;2023-07-22T06:25:43;20.85;;;11.15;;
80175;SDS011;69501;42.124;24.722;2023-07-22T06:28:09;19.63;;;11.63;;
80175;SDS011;69501;42.124;24.722;2023-07-22T06:30:34;24.42;;;12.48;;
80175;SDS011;69501;42.124;24.722;2023-07-22T06:33:00;19.42;;;11.68;;
80175;SDS011;69501;42.124;24.722;2023-07-22T06:35:26;18.98;;;11.35;;
80175;SDS011;69501;42.124;24.722;2023-07-22T06:37:51;18.33;;;11.30;;
80175;SDS011;69501;42.124;24.722;2023-07-22T06:40:17;18.58;;;11.50;;
80175;SDS011;69501;42.124;24.722;2023-07-22T06:42:43;21.30;;;11.20;;
80175;SDS011;69501;42.124;24.722;2023-07-22T06:45:09;14.50;;;11.15;;
80175;SDS011;69501;42.124;24.722;2023-07-22T06:47:35;17.30;;;11.70;;
80175;SDS011;69501;42.124;24.722;2023-07-22T06:50:01;17.63;;;10.80;;
80175;SDS011;69501;42.124;24.722;2023-07-22T06:52:29;20.85;;;10.65;;
80175;SDS011;69501;42.124;24.722;2023-07-22T06:54:55;22.63;;;11.95;;
80175;SDS011;69501;42.124;24.722;2023-07-22T06:57:21;25.73;;;14.73;;
80175;SDS011;69501;42.124;24.722;2023-07-22T06:59:46;18.77;;;12.70;;
80175;SDS011;69501;42.124;24.722;2023-07-22T07:02:12;17.38;;;10.77;;
80175;SDS011;69501;42.124;24.722;2023-07-22T07:04:38;19.92;;;11.10;;
80175;SDS011;69501;42.124;24.722;2023-07-22T07:07:03;18.73;;;10.77;;
80175;SDS011;69501;42.124;24.722;2023-07-22T07:09:29;14.70;;;11.05;;
80175;SDS011;69501;42.124;24.722;2023-07-22T07:11:55;23.75;;;11.05;;
80175;SDS011;69501;42.124;24.722;2023-07-22T07:14:23;21.60;;;11.65;;
80175;SDS011;69501;42.124;24.722;2023-07-22T07:16:52;16.98;;;11.48;;
80175;SDS011;69501;42.124;24.722;2023-07-22T07:19:18;14.75;;;10.23;;
80175;SDS011;69501;42.124;24.722;2023-07-22T07:21:43;16.55;;;10.73;;
80175;SDS011;69501;42.124;24.722;2023-07-22T07:24:09;13.65;;;11.32;;
80175;SDS011;69501;42.124;24.722;2023-07-22T07:26:35;17.10;;;12.52;;
80175;SDS011;69501;42.124;24.722;2023-07-22T07:29:00;16.45;;;11.20;;
80175;SDS011;69501;42.124;24.722;2023-07-22T07:31:26;16.38;;;12.07;;
80175;SDS011;69501;42.124;24.722;2023-07-22T07:33:52;21.25;;;12.43;;
80175;SDS011;69501;42.124;24.722;2023-07-22T07:36:18;22.27;;;11.80;;
80175;SDS011;69501;42.124;24.722;2023-07-22T07:38:43;22.83;;;12.45;;
80175;SDS011;69501;42.124;24.722;2023-07-22T07:41:09;17.60;;;11.48;;
80175;SDS011;69501;42.124;24.722;2023-07-22T07:43:39;21.38;;;10.95;;
80175;SDS011;69501;42.124;24.722;2023-07-22T07:46:12;18.58;;;11.00;;
80175;SDS011;69501;42.124;24.722;2023-07-22T07:48:42;14.07;;;11.02;;
80175;SDS011;69501;42.124;24.722;2023-07-22T07:51:08;15.30;;;11.07;;
80175;SDS011;69501;42.124;24.722;2023-07-22T07:53:34;18.05;;;11.57;;
80175;SDS011;69501;42.124;24.722;2023-07-22T07:55:59;19.30;;;11.13;;
80175;SDS011;69501;42.124;24.722;2023-07-22T07:58:25;21.92;;;11.65;;
80175;SDS011;69501;42.124;24.722;2023-07-22T08:00:51;14.20;;;11.13;;
80175;SDS011;69501;42.124;24.722;2023-07-22T08:03:17;20.52;;;11.02;;
80175;SDS011;69501;42.124;24.722;2023-07-22T08:05:42;21.77;;;11.88;;
80175;SDS011;69501;42.124;24.722;2023-07-22T08:08:08;20.52;;;12.10;;
80175;SDS011;69501;42.124;24.722;2023-07-22T08:10:35;18.25;;;12.30;;
80175;SDS011;69501;42.124;24.722;2023-07-22T08:13:01;17.88;;;11.63;;
80175;SDS011;69501;42.124;24.722;2023-07-22T08:15:27;17.00;;;11.32;;
80175;SDS011;69501;42.124;24.722;2023-07-22T08:17:53;19.35;;;11.30;;
80175;SDS011;69501;42.124;24.722;2023-07-22T08:20:18;16.45;;;11.52;;
80175;SDS011;69501;42.124;24.722;2023-07-22T08:22:44;18.23;;;11.02;;
80175;SDS011;69501;42.124;24.722;2023-07-22T08:25:10;13.98;;;11.80;;
80175;SDS011;69501;42.124;24.722;2023-07-22T08:27:35;17.08;;;11.38;;
80175;SDS011;69501;42.124;24.722;2023-07-22T08:30:01;23.65;;;12.70;;
80175;SDS011;69501;42.124;24.722;2023-07-22T08:32:26;15.40;;;12.10;;
80175;SDS011;69501;42.124;24.722;2023-07-22T08:34:52;16.02;;;11.18;;
80175;SDS011;69501;42.124;24.722;2023-07-22T08:37:18;23.98;;;12.85;;
80175;SDS011;69501;42.124;24.722;2023-07-22T08:39:43;20.38;;;12.75;;
80175;SDS011;69501;42.124;24.722;2023-07-22T08:42:09;17.30;;;11.35;;
80175;SDS011;69501;42.124;24.722;2023-07-22T08:44:37;18.58;;;11.15;;
80175;SDS011;69501;42.124;24.722;2023-07-22T08:47:06;16.35;;;11.60;;
80175;SDS011;69501;42.124;24.722;2023-07-22T08:49:37;19.63;;;11.77;;
80175;SDS011;69501;42.124;24.722;2023-07-22T08:52:05;24.67;;;12.15;;
80175;SDS011;69501;42.124;24.722;2023-07-22T08:54:31;19.67;;;12.18;;
80175;SDS011;69501;42.124;24.722;2023-07-22T08:56:58;18.17;;;11.95;;
80175;SDS011;69501;42.124;24.722;2023-07-22T08:59:24;13.40;;;11.35;;
80175;SDS011;69501;42.124;24.722;2023-07-22T09:01:50;15.68;;;11.68;;
80175;SDS011;69501;42.124;24.722;2023-07-22T09:04:17;13.25;;;10.90;;
80175;SDS011;69501;42.124;24.722;2023-07-22T09:06:44;16.40;;;10.68;;
80175;SDS011;69501;42.124;24.722;2023-07-22T09:09:10;17.55;;;10.82;;
80175;SDS011;69501;42.124;24.722;2023-07-22T09:11:37;19.67;;;11.63;;
80175;SDS011;69501;42.124;24.722;2023-07-22T09:14:03;18.92;;;11.23;;
80175;SDS011;69501;42.124;24.722;2023-07-22T09:16:32;18.67;;;11.75;;
80175;SDS011;69501;42.124;24.722;2023-07-22T09:18:58;17.75;;;11.43;;
80175;SDS011;69501;42.124;24.722;2023-07-22T09:21:24;23.05;;;11.27;;
80175;SDS011;69501;42.124;24.722;2023-07-22T09:23:50;15.95;;;10.95;;
80175;SDS011;69501;42.124;24.722;2023-07-22T09:26:16;15.60;;;11.35;;
80175;SDS011;69501;42.124;24.722;2023-07-22T09:28:56;19.30;;;11.20;;
80175;SDS011;69501;42.124;24.722;2023-07-22T09:31:24;22.63;;;11.70;;
80175;SDS011;69501;42.124;24.722;2023-07-22T09:33:51;22.15;;;11.18;;
80175;SDS011;69501;42.124;24.722;2023-07-22T09:36:19;19.40;;;11.82;;
80175;SDS011;69501;42.124;24.722;2023-07-22T09:38:45;16.02;;;11.15;;
80175;SDS011;69501;42.124;24.722;2023-07-22T09:41:27;18.80;;;11.48;;
80175;SDS011;69501;42.124;24.722;2023-07-22T09:43:54;13.95;;;11.38;;
80175;SDS011;69501;42.124;24.722;2023-07-22T09:46:20;20.60;;;11.25;;
80175;SDS011;69501;42.124;24.722;2023-07-22T09:48:46;15.80;;;11.85;;
80175;SDS011;69501;42.124;24.722;2023-07-22T09:51:15;18.38;;;11.10;;
80175;SDS011;69501;42.124;24.722;2023-07-22T09:53:44;17.88;;;11.35;;
80175;SDS011;69501;42.124;24.722;2023-07-22T09:56:11;23.67;;;10.95;;
80175;SDS011;69501;42.124;24.722;2023-07-22T09:58:37;22.70;;;11.13;;
80175;SDS011;69501;42.124;24.722;2023-07-22T10:01:04;20.55;;;11.88;;
80175;SDS011;69501;42.124;24.722;2023-07-22T10:03:32;17.02;;;11.30;;
80175;SDS011;69501;42.124;24.722;2023-07-22T10:06:02;18.70;;;12.52;;
80175;SDS011;69501;42.124;24.722;2023-07-22T10:08:29;16.80;;;12.65;;
80175;SDS011;69501;42.124;24.722;2023-07-22T10:10:57;16.38;;;12.23;;
80175;SDS011;69501;42.124;24.722;2023-07-22T10:13:25;19.60;;;11.63;;
80175;SDS011;69501;42.124;24.722;2023-07-22T10:15:52;18.23;;;11.70;;
80175;SDS011;69501;42.124;24.722;2023-07-22T10:18:18;16.80;;;11.38;;
80175;SDS011;69501;42.124;24.722;2023-07-22T10:20:47;21.70;;;11.52;;
80175;SDS011;69501;42.124;24.722;2023-07-22T10:23:14;17.60;;;11.48;;
80175;SDS011;69501;42.124;24.722;2023-07-22T10:25:40;17.85;;;12.52;;
80175;SDS011;69501;42.124;24.722;2023-07-22T10:28:07;20.35;;;11.60;;
80175;SDS011;69501;42.124;24.722;2023-07-22T10:30:35;19.25;;;11.50;;
80175;SDS011;69501;42.124;24.722;2023-07-22T10:33:00;23.33;;;12.85;;
80175;SDS011;69501;42.124;24.722;2023-07-22T10:37:55;17.02;;;12.45;;
80175;SDS011;69501;42.124;24.722;2023-07-22T10:42:58;17.45;;;12.48;;
80175;SDS011;69501;42.124;24.722;2023-07-22T10:45:28;17.33;;;12.57;;
80175;SDS011;69501;42.124;24.722;2023-07-22T10:48:06;23.52;;;12.30;;
80175;SDS011;69501;42.124;24.722;2023-07-22T10:53:04;16.70;;;11.43;;
80175;SDS011;69501;42.124;24.722;2023-07-22T10:55:30;20.88;;;12.45;;
80175;SDS011;69501;42.124;24.722;2023-07-22T10:58:01;18.10;;;13.18;;
80175;SDS011;69501;42.124;24.722;2023-07-22T11:00:30;27.20;;;12.48;;
80175;SDS011;69501;42.124;24.722;2023-07-22T11:03:12;24.30;;;11.52;;
80175;SDS011;69501;42.124;24.722;2023-07-22T11:08:34;23.48;;;12.23;;
80175;SDS011;69501;42.124;24.722;2023-07-22T11:11:04;21.80;;;10.52;;
80175;SDS011;69501;42.124;24.722;2023-07-22T11:13:34;18.48;;;11.07;;
80175;SDS011;69501;42.124;24.722;2023-07-22T11:16:04;14.90;;;11.15;;
80175;SDS011;69501;42.124;24.722;2023-07-22T11:18:36;16.33;;;10.05;;
80175;SDS011;69501;42.124;24.722;2023-07-22T11:21:12;24.33;;;10.70;;
80175;SDS011;69501;42.124;24.722;2023-07-22T11:23:37;20.10;;;10.60;;
80175;SDS011;69501;42.124;24.722;2023-07-22T11:26:03;19.40;;;10.48;;
80175;SDS011;69501;42.124;24.722;2023-07-22T11:28:30;21.73;;;11.52;;
80175;SDS011;69501;42.124;24.722;2023-07-22T11:30:56;21.95;;;10.85;;
80175;SDS011;69501;42.124;24.722;2023-07-22T11:33:23;17.45;;;11.10;;
80175;SDS011;69501;42.124;24.722;2023-07-22T11:35:49;18.83;;;11.50;;
80175;SDS011;69501;42.124;24.722;2023-07-22T11:38:15;16.17;;;11.65;;
80175;SDS011;69501;42.124;24.722;2023-07-22T11:40:40;25.00;;;10.88;;
80175;SDS011;69501;42.124;24.722;2023-07-22T11:43:06;19.60;;;11.18;;
80175;SDS011;69501;42.124;24.722;2023-07-22T11:45:32;23.08;;;11.48;;
80175;SDS011;69501;42.124;24.722;2023-07-22T11:47:58;17.60;;;10.52;;
80175;SDS011;69501;42.124;24.722;2023-07-22T11:50:31;16.92;;;9.85;;
80175;SDS011;69501;42.124;24.722;2023-07-22T11:52:59;22.60;;;10.38;;
80175;SDS011;69501;42.124;24.722;2023-07-22T11:55:25;16.45;;;10.18;;
80175;SDS011;69501;42.124;24.722;2023-07-22T11:57:54;17.80;;;9.77;;
80175;SDS011;69501;42.124;24.722;2023-07-22T12:00:20;21.65;;;9.68;;
80175;SDS011;69501;42.124;24.722;2023-07-22T12:02:46;21.50;;;10.48;;
80175;SDS011;69501;42.124;24.722;2023-07-22T12:05:19;22.60;;;10.50;;
80175;SDS011;69501;42.124;24.722;2023-07-22T12:07:46;19.25;;;9.60;;
80175;SDS011;69501;42.124;24.722;2023-07-22T12:10:12;21.58;;;9.85;;
80175;SDS011;69501;42.124;24.722;2023-07-22T12:17:46;18.13;;;9.43;;
80175;SDS011;69501;42.124;24.722;2023-07-22T12:20:18;23.50;;;9.40;;
80175;SDS011;69501;42.124;24.722;2023-07-22T12:22:44;19.05;;;9.02;;
80175;SDS011;69501;42.124;24.722;2023-07-22T12:25:10;19.30;;;9.23;;
80175;SDS011;69501;42.124;24.722;2023-07-22T12:27:36;18.38;;;9.15;;
80175;SDS011;69501;42.124;24.722;2023-07-22T12:30:02;15.35;;;8.77;;
80175;SDS011;69501;42.124;24.722;2023-07-22T12:32:29;22.25;;;9.55;;
80175;SDS011;69501;42.124;24.722;2023-07-22T12:34:54;24.67;;;10.30;;
80175;SDS011;69501;42.124;24.722;2023-07-22T12:37:20;23.90;;;9.35;;
80175;SDS011;69501;42.124;24.722;2023-07-22T12:39:46;24.85;;;11.32;;
80175;SDS011;69501;42.124;24.722;2023-07-22T12:42:11;19.35;;;8.63;;
80175;SDS011;69501;42.124;24.722;2023-07-22T12:44:37;18.60;;;9.07;;
80175;SDS011;69501;42.124;24.722;2023-07-22T12:47:03;20.58;;;9.18;;
80175;SDS011;69501;42.124;24.722;2023-07-22T12:49:29;20.30;;;9.85;;
80175;SDS011;69501;42.124;24.722;2023-07-22T12:51:54;19.33;;;8.55;;
80175;SDS011;69501;42.124;24.722;2023-07-22T12:54:20;15.60;;;8.70;;
80175;SDS011;69501;42.124;24.722;2023-07-22T12:56:46;20.20;;;8.95;;
80175;SDS011;69501;42.124;24.722;2023-07-22T12:59:11;24.15;;;10.77;;
80175;SDS011;69501;42.124;24.722;2023-07-22T13:01:37;25.90;;;8.88;;
80175;SDS011;69501;42.124;24.722;2023-07-22T13:04:06;25.00;;;9.93;;
80175;SDS011;69501;42.124;24.722;2023-07-22T13:06:31;16.98;;;8.68;;
80175;SDS011;69501;42.124;24.722;2023-07-22T13:08:57;23.35;;;8.82;;
80175;SDS011;69501;42.124;24.722;2023-07-22T13:11:22;20.60;;;9.68;;
80175;SDS011;69501;42.124;24.722;2023-07-22T13:13:48;18.00;;;8.75;;
80175;SDS011;69501;42.124;24.722;2023-07-22T13:16:14;17.02;;;8.05;;
80175;SDS011;69501;42.124;24.722;2023-07-22T13:18:39;20.20;;;8.80;;
80175;SDS011;69501;42.124;24.722;2023-07-22T13:21:05;23.67;;;9.23;;
80175;SDS011;69501;42.124;24.722;2023-07-22T13:23:31;20.25;;;8.77;;
80175;SDS011;69501;42.124;24.722;2023-07-22T13:25:56;24.38;;;8.90;;
80175;SDS011;69501;42.124;24.722;2023-07-22T13:28:22;18.80;;;8.85;;
80175;SDS011;69501;42.124;24.722;2023-07-22T13:30:47;29.17;;;9.15;;
80175;SDS011;69501;42.124;24.722;2023-07-22T13:33:13;19.20;;;9.27;;
80175;SDS011;69501;42.124;24.722;2023-07-22T13:35:39;20.77;;;8.75;;
80175;SDS011;69501;42.124;24.722;2023-07-22T13:38:04;20.52;;;8.95;;
80175;SDS011;69501;42.124;24.722;2023-07-22T13:40:30;27.33;;;9.50;;
80175;SDS011;69501;42.124;24.722;2023-07-22T13:42:56;23.45;;;10.77;;
80175;SDS011;69501;42.124;24.722;2023-07-22T13:45:21;26.23;;;9.10;;
80175;SDS011;69501;42.124;24.722;2023-07-22T13:47:47;22.25;;;9.43;;
80175;SDS011;69501;42.124;24.722;2023-07-22T13:50:12;23.13;;;9.75;;
80175;SDS011;69501;42.124;24.722;2023-07-22T13:52:38;20.10;;;11.30;;
80175;SDS011;69501;42.124;24.722;2023-07-22T13:55:06;28.40;;;10.25;;
80175;SDS011;69501;42.124;24.722;2023-07-22T13:57:32;22.83;;;10.13;;
80175;SDS011;69501;42.124;24.722;2023-07-22T13:59:57;19.90;;;9.23;;
80175;SDS011;69501;42.124;24.722;2023-07-22T14:02:23;23.05;;;9.18;;
80175;SDS011;69501;42.124;24.722;2023-07-22T14:04:49;19.23;;;9.40;;
80175;SDS011;69501;42.124;24.722;2023-07-22T14:07:14;22.75;;;8.55;;
80175;SDS011;69501;42.124;24.722;2023-07-22T14:09:41;24.30;;;9.82;;
80175;SDS011;69501;42.124;24.722;2023-07-22T14:12:06;27.15;;;9.25;;
80175;SDS011;69501;42.124;24.722;2023-07-22T14:14:32;26.85;;;10.00;;
80175;SDS011;69501;42.124;24.722;2023-07-22T14:17:10;40.70;;;10.93;;
80175;SDS011;69501;42.124;24.722;2023-07-22T14:19:36;27.08;;;9.68;;
80175;SDS011;69501;42.124;24.722;2023-07-22T14:22:01;22.92;;;8.90;;
80175;SDS011;69501;42.124;24.722;2023-07-22T14:24:28;34.25;;;9.10;;
80175;SDS011;69501;42.124;24.722;2023-07-22T14:26:54;22.63;;;8.90;;